Time;durP1;ratioP1;P1;durP2;ratioP2;P2;SDS_P1;SDS_P2;PMS_P1;PMS_P2;Temp;Humidity;BMP_temperature;BMP_pressure;BME280_temperature;BME280_humidity;BME280_pressure;Samples;Min_cycle;Max_cycle;Signal;HPM_P1;HPM_P2
2022/02/25 00:02:16;;;;;;;0.00;0.00;;;6.30;99.90;;;;;;5034324;28;20045;-73
2022/02/25 00:04:42;;;;;;;0.00;0.00;;;6.30;99.90;;;;;;5034687;28;20446;-76
2022/02/25 00:07:08;;;;;;;0.47;0.47;;;6.20;99.90;;;;;;5034535;28;20378;-73
2022/02/25 00:09:33;;;;;;;0.00;0.00;;;6.30;99.90;;;;;;5034474;28;20104;-74
2022/02/25 00:11:59;;;;;;;0.00;0.00;;;6.30;99.90;;;;;;5034983;28;20030;-73
2022/02/25 00:14:25;;;;;;;0.20;0.20;;;6.30;99.90;;;;;;5034789;28;20080;-75
2022/02/25 00:16:51;;;;;;;0.00;0.00;;;6.20;99.90;;;;;;5034415;28;20049;-74
2022/02/25 00:19:18;;;;;;;0.20;0.20;;;6.20;99.90;;;;;;5034118;28;20411;-74
2022/02/25 00:21:44;;;;;;;4.95;0.70;;;6.20;99.90;;;;;;5035280;28;20120;-75
2022/02/25 00:24:10;;;;;;;0.00;0.00;;;6.20;99.90;;;;;;5034728;28;20048;-76
2022/02/25 00:26:36;;;;;;;0.00;0.00;;;6.10;99.90;;;;;;5034975;28;20025;-75
2022/02/25 00:29:03;;;;;;;0.00;0.00;;;6.10;99.90;;;;;;5034318;28;20029;-73
2022/02/25 00:31:29;;;;;;;0.00;0.00;;;6.10;99.90;;;;;;5034306;28;20029;-75
2022/02/25 00:33:55;;;;;;;0.52;0.35;;;6.10;99.90;;;;;;5034226;28;20091;-73
2022/02/25 00:36:20;;;;;;;0.30;0.30;;;6.00;99.90;;;;;;5034332;28;20022;-73
2022/02/25 00:38:46;;;;;;;1.75;1.00;;;6.00;99.90;;;;;;5034184;28;20076;-73
2022/02/25 00:41:12;;;;;;;1.60;0.55;;;5.90;99.90;;;;;;5034584;28;20503;-73
2022/02/25 00:43:38;;;;;;;0.00;0.00;;;5.80;99.90;;;;;;5033565;28;20080;-73
2022/02/25 00:46:03;;;;;;;0.20;0.20;;;5.80;99.90;;;;;;5034395;28;20071;-73
2022/02/25 00:48:29;;;;;;;0.00;0.00;;;5.70;99.90;;;;;;5033891;28;20427;-76
2022/02/25 00:50:55;;;;;;;0.00;0.00;;;5.60;99.90;;;;;;5034361;28;20029;-76
2022/02/25 00:53:20;;;;;;;0.00;0.00;;;5.50;99.90;;;;;;5033901;28;20080;-74
2022/02/25 00:55:46;;;;;;;0.00;0.00;;;5.40;99.90;;;;;;5034066;28;20373;-76
2022/02/25 00:58:11;;;;;;;0.80;0.63;;;5.40;99.90;;;;;;5033909;28;20520;-75
2022/02/25 01:00:37;;;;;;;0.85;0.40;;;5.20;99.90;;;;;;5034021;28;20033;-75
2022/02/25 01:03:03;;;;;;;0.32;0.32;;;5.20;99.90;;;;;;5033632;28;20026;-73
2022/02/25 01:05:28;;;;;;;0.00;0.00;;;5.10;99.90;;;;;;5033351;28;20396;-76
2022/02/25 01:07:54;;;;;;;0.00;0.00;;;5.10;99.90;;;;;;5034067;28;20037;-73
2022/02/25 01:10:20;;;;;;;0.25;0.15;;;5.10;99.90;;;;;;5033654;28;20018;-73
2022/02/25 01:12:47;;;;;;;0.10;0.10;;;5.00;99.90;;;;;;5032959;28;20480;-75
2022/02/25 01:15:14;;;;;;;4.95;1.38;;;5.00;99.90;;;;;;5033409;28;20029;-75
2022/02/25 01:17:40;;;;;;;4.30;1.02;;;4.90;99.90;;;;;;5032594;28;20025;-75
2022/02/25 01:20:07;;;;;;;0.00;0.00;;;4.80;99.90;;;;;;5032841;28;20022;-75
2022/02/25 01:22:34;;;;;;;0.00;0.00;;;4.80;99.90;;;;;;5033706;28;20052;-75
2022/02/25 01:25:00;;;;;;;5.57;0.95;;;4.70;99.90;;;;;;5033325;28;20030;-76
2022/02/25 01:27:27;;;;;;;0.00;0.00;;;4.70;99.90;;;;;;5033628;28;20038;-76
2022/02/25 01:29:52;;;;;;;0.00;0.00;;;4.70;99.90;;;;;;5033363;28;20438;-73
2022/02/25 01:32:18;;;;;;;2.10;1.85;;;4.80;99.90;;;;;;5033166;28;20040;-73
2022/02/25 01:34:44;;;;;;;0.43;0.43;;;4.90;99.90;;;;;;5033486;28;20030;-74
2022/02/25 01:37:09;;;;;;;0.00;0.00;;;4.90;99.90;;;;;;5033211;28;20512;-73
2022/02/25 01:39:35;;;;;;;0.30;0.30;;;5.00;99.90;;;;;;5033087;28;20541;-75
2022/02/25 01:42:02;;;;;;;0.00;0.00;;;5.00;99.90;;;;;;5032004;28;20029;-74
2022/02/25 01:44:31;;;;;;;5.07;1.17;;;5.10;99.90;;;;;;5031902;28;20053;-74
2022/02/25 01:47:04;;;;;;;0.10;0.10;;;5.00;99.90;;;;;;5033261;28;20033;-75
2022/02/25 01:49:31;;;;;;;0.20;0.20;;;5.00;99.90;;;;;;5032999;28;20026;-76
2022/02/25 01:52:02;;;;;;;0.00;0.00;;;5.00;99.90;;;;;;5031569;28;20500;-73
2022/02/25 01:54:29;;;;;;;2.17;1.10;;;5.00;99.90;;;;;;5032807;28;20057;-72
2022/02/25 01:56:55;;;;;;;0.55;0.28;;;4.90;99.90;;;;;;5033202;28;20100;-73
2022/02/25 01:59:22;;;;;;;0.00;0.00;;;4.80;99.90;;;;;;5032825;28;20100;-75
2022/02/25 02:01:47;;;;;;;0.00;0.00;;;4.70;99.90;;;;;;5032582;28;20079;-75
2022/02/25 02:04:13;;;;;;;0.00;0.00;;;4.60;99.90;;;;;;5032984;28;20412;-73
2022/02/25 02:06:39;;;;;;;1.67;0.75;;;4.50;99.90;;;;;;5033001;28;20037;-73
2022/02/25 02:09:06;;;;;;;0.00;0.00;;;4.40;99.90;;;;;;5032808;28;20033;-73
2022/02/25 02:11:40;;;;;;;3.20;1.10;;;4.40;99.90;;;;;;5033179;28;20049;-73
2022/02/25 02:14:09;;;;;;;0.75;0.75;;;4.40;99.90;;;;;;5032689;28;20044;-75
2022/02/25 02:16:35;;;;;;;2.53;0.95;;;4.30;99.90;;;;;;5032371;28;20098;-73
2022/02/25 02:19:01;;;;;;;0.00;0.00;;;4.30;99.90;;;;;;5032333;28;20022;-76
2022/02/25 02:21:29;;;;;;;2.33;1.08;;;4.30;99.90;;;;;;5032934;28;20468;-76
2022/02/25 02:23:58;;;;;;;1.25;1.00;;;4.20;99.90;;;;;;5032462;28;20029;-76
2022/02/25 02:26:25;;;;;;;0.00;0.00;;;4.10;99.90;;;;;;5034730;28;20033;-76
2022/02/25 02:28:52;;;;;;;2.50;0.95;;;4.10;99.90;;;;;;5036178;28;20041;-73
2022/02/25 02:31:18;;;;;;;0.30;0.30;;;4.10;99.90;;;;;;5036410;28;20040;-75
2022/02/25 02:33:44;;;;;;;0.00;0.00;;;4.10;99.90;;;;;;5036702;28;20112;-73
2022/02/25 02:36:11;;;;;;;0.00;0.00;;;4.00;99.90;;;;;;5036729;28;20025;-73
2022/02/25 02:38:38;;;;;;;0.00;0.00;;;4.00;99.90;;;;;;5036738;28;20030;-73
2022/02/25 02:41:05;;;;;;;0.10;0.10;;;3.90;99.90;;;;;;5036801;28;20026;-75
2022/02/25 02:43:31;;;;;;;0.00;0.00;;;3.90;99.90;;;;;;5036385;28;20099;-75
2022/02/25 02:45:57;;;;;;;0.00;0.00;;;3.90;99.90;;;;;;5036786;28;20032;-75
2022/02/25 02:48:23;;;;;;;0.00;0.00;;;3.90;99.90;;;;;;5036236;28;20436;-73
2022/02/25 02:50:48;;;;;;;0.43;0.43;;;3.90;99.90;;;;;;5036370;28;20484;-73
2022/02/25 02:53:14;;;;;;;0.00;0.00;;;3.90;99.90;;;;;;5036133;28;20021;-75
2022/02/25 02:55:42;;;;;;;0.17;0.17;;;3.90;99.90;;;;;;5036257;28;20381;-75
2022/02/25 02:58:08;;;;;;;3.30;1.25;;;3.80;99.90;;;;;;5023133;28;20026;-75
2022/02/25 03:00:33;;;;;;;0.00;0.00;;;3.80;99.90;;;;;;5016724;28;20087;-74
2022/02/25 03:02:59;;;;;;;0.40;0.40;;;3.80;99.90;;;;;;5015757;28;20026;-75
2022/02/25 03:05:25;;;;;;;0.00;0.00;;;3.80;99.90;;;;;;5016404;28;20037;-75
2022/02/25 03:07:51;;;;;;;0.17;0.17;;;3.70;99.90;;;;;;5016218;28;20050;-75
2022/02/25 03:10:17;;;;;;;0.70;0.70;;;3.60;99.90;;;;;;5016582;28;20033;-75
2022/02/25 03:12:43;;;;;;;0.10;0.10;;;3.60;99.90;;;;;;5016175;28;20105;-73
2022/02/25 03:15:10;;;;;;;0.00;0.00;;;3.50;99.90;;;;;;5016358;28;20400;-75
2022/02/25 03:17:37;;;;;;;0.10;0.10;;;3.40;99.90;;;;;;5015782;28;20116;-75
2022/02/25 03:20:05;;;;;;;0.38;0.38;;;3.40;99.90;;;;;;5015738;28;20097;-73
2022/02/25 03:22:31;;;;;;;1.95;1.00;;;3.40;99.90;;;;;;5015930;28;20026;-73
2022/02/25 03:24:57;;;;;;;0.20;0.20;;;3.40;99.90;;;;;;5015913;28;20536;-73
2022/02/25 03:27:23;;;;;;;0.00;0.00;;;3.30;99.90;;;;;;5016068;28;20104;-73
2022/02/25 03:29:49;;;;;;;0.73;0.73;;;3.30;99.90;;;;;;5015888;28;20081;-75
2022/02/25 03:32:16;;;;;;;0.08;0.08;;;3.20;99.90;;;;;;5031096;28;20033;-75
2022/02/25 03:34:41;;;;;;;0.10;0.10;;;3.20;99.90;;;;;;5015692;28;20033;-73
2022/02/25 03:37:07;;;;;;;0.00;0.00;;;3.20;99.90;;;;;;5023521;28;20108;-73
2022/02/25 03:39:36;;;;;;;0.03;0.03;;;3.10;99.90;;;;;;5035199;28;20030;-76
2022/02/25 03:42:03;;;;;;;0.20;0.20;;;3.10;99.90;;;;;;5035409;28;20018;-75
2022/02/25 03:44:28;;;;;;;9.85;1.98;;;3.10;99.90;;;;;;5037451;28;20101;-75
2022/02/25 03:46:57;;;;;;;0.52;0.52;;;3.10;99.90;;;;;;5036345;28;20104;-75
2022/02/25 03:49:22;;;;;;;0.68;0.68;;;3.10;99.90;;;;;;5035209;28;20049;-75
2022/02/25 03:51:49;;;;;;;0.70;0.70;;;3.10;99.90;;;;;;5035049;28;20053;-73
2022/02/25 03:54:15;;;;;;;0.00;0.00;;;3.10;99.90;;;;;;5034771;28;20079;-75
2022/02/25 03:56:41;;;;;;;0.00;0.00;;;3.00;99.90;;;;;;5033906;28;20022;-75
2022/02/25 03:59:06;;;;;;;0.28;0.28;;;3.00;99.90;;;;;;5034433;28;20036;-75
2022/02/25 04:01:32;;;;;;;0.08;0.08;;;2.90;99.90;;;;;;5033914;28;20100;-75
2022/02/25 04:03:58;;;;;;;0.55;0.55;;;2.90;99.90;;;;;;5035180;28;20049;-73
2022/02/25 04:06:25;;;;;;;0.73;0.47;;;2.80;99.90;;;;;;5035181;28;20060;-75
2022/02/25 04:08:51;;;;;;;0.35;0.35;;;2.80;99.90;;;;;;5034900;28;20057;-74
2022/02/25 04:11:19;;;;;;;0.00;0.00;;;2.80;99.90;;;;;;5034173;28;20029;-75
2022/02/25 04:13:45;;;;;;;0.00;0.00;;;2.70;99.90;;;;;;5034205;28;20021;-75
2022/02/25 04:16:11;;;;;;;0.00;0.00;;;2.70;99.90;;;;;;5034687;28;20055;-75
2022/02/25 04:18:37;;;;;;;0.00;0.00;;;2.60;99.90;;;;;;5034499;28;20033;-73
2022/02/25 04:21:03;;;;;;;2.28;0.68;;;2.60;99.90;;;;;;5034517;28;20026;-75
2022/02/25 04:23:28;;;;;;;3.50;0.77;;;2.60;99.90;;;;;;5034078;28;20395;-73
2022/02/25 04:25:54;;;;;;;0.80;0.75;;;2.50;99.90;;;;;;5034738;28;20065;-75
2022/02/25 04:28:19;;;;;;;0.65;0.65;;;2.50;99.90;;;;;;5034658;28;20071;-75
2022/02/25 04:30:46;;;;;;;0.00;0.00;;;2.50;99.90;;;;;;5034489;28;20028;-75
2022/02/25 04:33:12;;;;;;;0.38;0.38;;;2.50;99.90;;;;;;5034357;28;20026;-73
2022/02/25 04:35:38;;;;;;;11.88;2.53;;;2.50;99.90;;;;;;5023639;28;20033;-75
2022/02/25 04:38:04;;;;;;;0.20;0.20;;;2.50;99.90;;;;;;5030224;28;20032;-73
2022/02/25 04:40:30;;;;;;;5.47;0.80;;;2.40;99.90;;;;;;5034441;28;20030;-76
2022/02/25 04:42:56;;;;;;;3.03;1.92;;;2.40;99.90;;;;;;5033926;28;20021;-75
2022/02/25 04:45:22;;;;;;;1.08;1.05;;;2.30;99.90;;;;;;5034203;28;20053;-73
2022/02/25 04:47:48;;;;;;;0.00;0.00;;;2.30;99.90;;;;;;5033774;28;20108;-74
2022/02/25 04:50:15;;;;;;;0.25;0.25;;;2.30;99.90;;;;;;5033165;28;20045;-73
2022/02/25 04:52:42;;;;;;;0.00;0.00;;;2.30;99.90;;;;;;5034161;28;20443;-75
2022/02/25 04:55:09;;;;;;;0.13;0.13;;;2.30;99.90;;;;;;5033744;28;20108;-75
2022/02/25 04:57:35;;;;;;;3.00;1.13;;;2.30;99.90;;;;;;5034199;28;20052;-76
2022/02/25 05:00:00;;;;;;;0.00;0.00;;;2.30;99.90;;;;;;5035359;28;20026;-76
2022/02/25 05:02:26;;;;;;;0.00;0.00;;;2.30;99.90;;;;;;5035196;28;20032;-75
2022/02/25 05:04:52;;;;;;;0.25;0.25;;;2.30;99.90;;;;;;5034094;28;20040;-73
2022/02/25 05:07:18;;;;;;;0.10;0.10;;;2.30;99.90;;;;;;5034016;28;20108;-73
2022/02/25 05:09:43;;;;;;;0.52;0.52;;;2.30;99.90;;;;;;5033836;28;20037;-73
2022/02/25 05:12:09;;;;;;;0.45;0.45;;;2.40;99.90;;;;;;5034003;28;20079;-75
2022/02/25 05:20:15;;;;;;;1.98;0.32;;;2.30;99.90;;;;;;5033503;28;20029;-75
2022/02/25 05:22:42;;;;;;;1.08;0.98;;;2.30;99.90;;;;;;5032904;28;20021;-73
2022/02/25 05:25:09;;;;;;;0.20;0.20;;;2.30;99.90;;;;;;5033310;28;20051;-73
2022/02/25 05:27:34;;;;;;;0.00;0.00;;;2.30;99.90;;;;;;5033701;28;20041;-73
2022/02/25 05:30:01;;;;;;;0.35;0.13;;;2.20;99.90;;;;;;5033431;28;20029;-73
2022/02/25 05:32:27;;;;;;;0.75;0.38;;;2.20;99.90;;;;;;5033179;28;20045;-75
2022/02/25 05:34:52;;;;;;;4.55;1.63;;;2.20;99.90;;;;;;5028660;28;20417;-73
2022/02/25 05:37:18;;;;;;;0.00;0.00;;;2.20;99.90;;;;;;5023743;28;20037;-73
2022/02/25 05:39:46;;;;;;;0.40;0.40;;;2.20;99.90;;;;;;5032996;28;20033;-75
2022/02/25 05:42:12;;;;;;;0.13;0.13;;;2.20;99.90;;;;;;5033320;28;20026;-73
2022/02/25 05:44:38;;;;;;;0.00;0.00;;;2.20;99.90;;;;;;5033032;28;20068;-75
2022/02/25 05:47:04;;;;;;;0.00;0.00;;;2.20;99.90;;;;;;5033274;28;20083;-75
2022/02/25 05:49:30;;;;;;;0.00;0.00;;;2.10;99.90;;;;;;5033046;28;20021;-75
2022/02/25 05:51:56;;;;;;;0.30;0.15;;;2.00;99.90;;;;;;5032661;28;20435;-73
2022/02/25 05:54:22;;;;;;;1.90;1.10;;;2.00;99.90;;;;;;5032531;28;20159;-73
2022/02/25 05:56:48;;;;;;;0.10;0.10;;;1.90;99.90;;;;;;5033056;28;20033;-75
2022/02/25 05:59:14;;;;;;;0.00;0.00;;;1.80;99.90;;;;;;5031902;28;20048;-75
2022/02/25 06:01:39;;;;;;;0.00;0.00;;;1.80;99.90;;;;;;5032101;28;20025;-73
2022/02/25 06:04:05;;;;;;;1.67;1.08;;;1.80;99.90;;;;;;5031528;28;20033;-73
2022/02/25 06:06:32;;;;;;;0.20;0.20;;;1.90;99.90;;;;;;5033018;28;20025;-75
2022/02/25 06:08:58;;;;;;;1.30;1.15;;;1.90;99.90;;;;;;5032421;28;20026;-73
2022/02/25 06:11:24;;;;;;;0.55;0.55;;;1.90;99.90;;;;;;5032685;28;20068;-73
2022/02/25 06:13:49;;;;;;;0.45;0.40;;;1.90;99.90;;;;;;5032973;28;20025;-75
2022/02/25 06:16:15;;;;;;;0.00;0.00;;;1.90;99.90;;;;;;5032745;28;20022;-75
2022/02/25 06:18:42;;;;;;;0.00;0.00;;;1.90;99.90;;;;;;5032471;28;20035;-73
2022/02/25 06:21:08;;;;;;;1.38;1.17;;;1.90;99.90;;;;;;5032719;28;20048;-73
2022/02/25 06:23:34;;;;;;;0.65;0.65;;;2.00;99.90;;;;;;5032000;28;20088;-75
2022/02/25 06:26:00;;;;;;;0.52;0.52;;;2.10;99.90;;;;;;5031571;28;20030;-73
2022/02/25 06:28:26;;;;;;;0.30;0.30;;;2.10;99.90;;;;;;5032868;28;20034;-73
2022/02/25 06:30:53;;;;;;;0.20;0.20;;;2.20;99.90;;;;;;5032455;28;20092;-75
2022/02/25 06:33:19;;;;;;;2.20;1.55;;;2.20;99.90;;;;;;5032160;28;20060;-75
2022/02/25 06:35:45;;;;;;;0.17;0.17;;;2.10;99.90;;;;;;5020794;28;20061;-75
2022/02/25 06:38:10;;;;;;;0.10;0.10;;;2.10;99.90;;;;;;5029358;28;20484;-75
2022/02/25 06:40:36;;;;;;;0.10;0.10;;;2.20;99.90;;;;;;5032544;28;20028;-75
2022/02/25 06:43:02;;;;;;;0.60;0.60;;;2.10;99.90;;;;;;5030707;28;20029;-73
2022/02/25 06:45:28;;;;;;;0.55;0.55;;;2.10;99.90;;;;;;5032344;28;20503;-73
2022/02/25 06:47:53;;;;;;;0.65;0.63;;;2.10;99.90;;;;;;5032469;28;20065;-75
2022/02/25 06:50:19;;;;;;;0.25;0.25;;;2.00;99.90;;;;;;5031413;28;20025;-75
2022/02/25 06:52:46;;;;;;;0.47;0.47;;;2.10;99.90;;;;;;5032146;28;20481;-73
2022/02/25 06:55:16;;;;;;;0.10;0.10;;;2.10;99.90;;;;;;5026636;28;20108;-74
2022/02/25 06:57:42;;;;;;;0.10;0.10;;;2.20;99.90;;;;;;5031780;28;20029;-75
2022/02/25 07:00:11;;;;;;;66.30;1.45;;;2.20;99.90;;;;;;5032040;28;20431;-75
2022/02/25 07:02:37;;;;;;;1.30;1.30;;;2.20;99.90;;;;;;5031588;28;20207;-75
2022/02/25 07:05:04;;;;;;;0.43;0.43;;;2.20;99.90;;;;;;5031536;28;20164;-74
2022/02/25 07:07:30;;;;;;;1.35;0.40;;;2.20;99.90;;;;;;5029655;28;20065;-73
2022/02/25 07:09:55;;;;;;;0.52;0.52;;;2.30;99.90;;;;;;5030672;28;20025;-75
2022/02/25 07:12:22;;;;;;;1.65;1.08;;;2.30;99.90;;;;;;5031433;28;20065;-75
2022/02/25 07:14:48;;;;;;;0.55;0.55;;;2.40;99.90;;;;;;5034340;28;20033;-73
2022/02/25 07:17:14;;;;;;;0.45;0.45;;;2.40;99.90;;;;;;5033886;28;20033;-75
2022/02/25 07:19:40;;;;;;;0.00;0.00;;;2.50;99.90;;;;;;5034136;28;20026;-74
2022/02/25 07:22:05;;;;;;;0.95;0.95;;;2.60;99.90;;;;;;5033850;28;20026;-73
2022/02/25 07:24:31;;;;;;;0.35;0.35;;;2.60;99.90;;;;;;5031149;28;20385;-75
2022/02/25 07:26:57;;;;;;;0.20;0.20;;;2.70;99.90;;;;;;5033634;28;20370;-75
2022/02/25 07:29:22;;;;;;;0.63;0.63;;;2.70;99.90;;;;;;5033528;28;20037;-75
2022/02/25 07:31:48;;;;;;;1.30;1.02;;;2.80;99.90;;;;;;5033686;28;20571;-73
2022/02/25 07:34:14;;;;;;;0.30;0.30;;;2.90;99.90;;;;;;5029447;28;20034;-74
2022/02/25 07:36:39;;;;;;;0.35;0.35;;;3.00;99.90;;;;;;5017217;28;20111;-75
2022/02/25 07:39:05;;;;;;;1.45;1.35;;;3.10;99.90;;;;;;5030597;28;20045;-73
2022/02/25 07:41:31;;;;;;;0.20;0.20;;;3.20;99.90;;;;;;5033911;28;20087;-75
2022/02/25 07:43:57;;;;;;;0.38;0.38;;;3.30;99.90;;;;;;5032706;28;20069;-75
2022/02/25 07:46:23;;;;;;;0.00;0.00;;;3.50;99.90;;;;;;5033377;28;20424;-73
2022/02/25 07:48:48;;;;;;;0.10;0.10;;;3.60;99.90;;;;;;5032699;28;20076;-75
2022/02/25 07:51:14;;;;;;;0.00;0.00;;;3.70;99.90;;;;;;5029141;28;20056;-75
2022/02/25 07:53:40;;;;;;;0.10;0.10;;;3.90;99.90;;;;;;5031844;28;20071;-75
2022/02/25 07:56:06;;;;;;;0.65;0.65;;;4.00;99.90;;;;;;5028625;28;20029;-75
2022/02/25 07:58:32;;;;;;;0.45;0.45;;;4.20;99.90;;;;;;5026239;28;20021;-75
2022/02/25 08:00:59;;;;;;;13.25;3.10;;;4.40;99.90;;;;;;5032455;28;20060;-73
2022/02/25 08:03:25;;;;;;;3.55;0.68;;;4.60;99.90;;;;;;5027465;28;20053;-75
2022/02/25 08:05:51;;;;;;;0.30;0.30;;;5.00;99.90;;;;;;5032175;28;20068;-75
2022/02/25 08:08:16;;;;;;;0.73;0.38;;;5.60;99.90;;;;;;5025793;28;20060;-74
2022/02/25 08:10:42;;;;;;;0.22;0.15;;;6.20;99.90;;;;;;5032617;28;20108;-74
2022/02/25 08:13:12;;;;;;;2.40;1.65;;;7.60;99.90;;;;;;5031826;28;20406;-74
2022/02/25 08:15:37;;;;;;;0.00;0.00;;;7.70;99.90;;;;;;5029019;28;20052;-76
2022/02/25 08:18:08;;;;;;;0.00;0.00;;;7.50;99.90;;;;;;5021165;28;20042;-76
2022/02/25 08:20:36;;;;;;;0.10;0.10;;;8.40;99.90;;;;;;5029225;28;20497;-76
2022/02/25 08:23:03;;;;;;;0.10;0.10;;;9.50;99.90;;;;;;5028588;28;20068;-76
2022/02/25 08:25:30;;;;;;;0.05;0.05;;;9.40;99.90;;;;;;5029701;28;20500;-74
2022/02/25 08:27:56;;;;;;;2.05;1.65;;;8.60;99.90;;;;;;5032108;28;20018;-74
2022/02/25 08:30:22;;;;;;;0.35;0.30;;;8.20;99.90;;;;;;5031867;28;20022;-76
2022/02/25 08:32:49;;;;;;;0.50;0.50;;;7.80;99.90;;;;;;5031436;28;20506;-74
2022/02/25 08:35:17;;;;;;;7.03;1.65;;;7.60;99.90;;;;;;5021214;28;20025;-76
2022/02/25 08:37:44;;;;;;;0.10;0.10;;;7.50;99.90;;;;;;5031321;28;20544;-74
2022/02/25 08:40:11;;;;;;;0.50;0.50;;;7.60;99.90;;;;;;5031438;28;20040;-75
2022/02/25 08:42:37;;;;;;;0.95;0.63;;;8.20;99.90;;;;;;5029716;28;20076;-77
2022/02/25 08:45:07;;;;;;;1.15;0.50;;;10.40;99.90;;;;;;5031315;28;20045;-77
2022/02/25 08:47:33;;;;;;;3.05;0.55;;;12.50;99.90;;;;;;5030775;28;20029;-77
2022/02/25 08:49:59;;;;;;;0.50;0.50;;;14.20;99.90;;;;;;5029648;28;20022;-72
2022/02/25 08:52:25;;;;;;;0.75;0.35;;;15.70;99.90;;;;;;5028029;28;20033;-74
2022/02/25 08:54:51;;;;;;;0.65;0.65;;;16.30;99.90;;;;;;5030549;28;20127;-75
2022/02/25 08:57:17;;;;;;;0.32;0.28;;;17.10;99.90;;;;;;5030276;28;20022;-75
2022/02/25 08:59:43;;;;;;;1.60;1.00;;;17.10;99.90;;;;;;5029463;28;20037;-75
2022/02/25 09:02:10;;;;;;;0.40;0.30;;;16.30;99.90;;;;;;5030220;28;20401;-74
2022/02/25 09:04:36;;;;;;;0.60;0.60;;;14.80;99.90;;;;;;5029984;28;20523;-73
2022/02/25 09:07:03;;;;;;;1.02;0.63;;;13.80;99.90;;;;;;5031667;28;20079;-73
2022/02/25 09:09:28;;;;;;;0.47;0.45;;;13.00;99.90;;;;;;5029824;28;20032;-75
2022/02/25 09:11:54;;;;;;;0.75;0.60;;;13.00;99.90;;;;;;5030486;28;20120;-75
2022/02/25 09:14:20;;;;;;;0.90;0.68;;;13.00;99.90;;;;;;5030745;28;20381;-75
2022/02/25 09:16:46;;;;;;;0.00;0.00;;;12.70;99.90;;;;;;5030547;28;20536;-73
2022/02/25 09:19:12;;;;;;;1.40;0.52;;;12.40;99.90;;;;;;5047855;28;20033;-73
2022/02/25 09:21:38;;;;;;;0.30;0.30;;;12.30;99.90;;;;;;5041926;28;20021;-73
2022/02/25 09:24:04;;;;;;;0.35;0.35;;;12.40;99.90;;;;;;5031248;28;20033;-75
2022/02/25 09:26:31;;;;;;;0.03;0.03;;;12.70;99.90;;;;;;5031336;28;20567;-75
2022/02/25 09:28:58;;;;;;;5.88;0.20;;;13.00;99.90;;;;;;5029411;28;20061;-74
2022/02/25 09:31:24;;;;;;;1.17;0.43;;;13.20;99.90;;;;;;5029775;28;20029;-74
2022/02/25 09:33:50;;;;;;;0.10;0.10;;;14.00;99.90;;;;;;5028603;28;20029;-75
2022/02/25 09:36:16;;;;;;;0.00;0.00;;;14.50;99.90;;;;;;5024348;28;20035;-74
2022/02/25 09:38:42;;;;;;;2.47;0.32;;;14.30;99.90;;;;;;5030546;28;20064;-74
2022/02/25 09:41:08;;;;;;;0.10;0.10;;;14.30;99.90;;;;;;5028022;28;20032;-75
2022/02/25 09:43:34;;;;;;;3.10;1.08;;;14.50;99.90;;;;;;5029803;28;20108;-73
2022/02/25 09:46:05;;;;;;;3.28;0.20;;;16.00;99.90;;;;;;5029551;28;20057;-75
2022/02/25 09:48:31;;;;;;;0.13;0.13;;;17.30;99.90;;;;;;5028301;28;20029;-75
2022/02/25 09:50:57;;;;;;;0.00;0.00;;;17.20;99.70;;;;;;5029046;28;20117;-73
2022/02/25 09:53:24;;;;;;;3.03;0.35;;;16.60;99.80;;;;;;5028043;28;20057;-75
2022/02/25 09:55:49;;;;;;;2.22;0.28;;;16.30;99.90;;;;;;5024239;28;20104;-73
2022/02/25 09:58:16;;;;;;;0.40;0.22;;;15.70;99.90;;;;;;5029471;28;20109;-73
2022/02/25 10:00:43;;;;;;;0.15;0.15;;;15.20;99.90;;;;;;5032630;28;20041;-74
2022/02/25 10:03:19;;;;;;;2.30;0.28;;;14.60;99.90;;;;;;5025098;28;20025;-74
2022/02/25 10:05:46;;;;;;;1.90;0.68;;;13.70;99.90;;;;;;5028322;28;20025;-75
2022/02/25 10:08:20;;;;;;;0.47;0.43;;;13.00;99.90;;;;;;5024854;28;20528;-73
2022/02/25 10:10:53;;;;;;;0.08;0.08;;;12.10;99.90;;;;;;5028369;28;20026;-75
2022/02/25 10:13:27;;;;;;;0.00;0.00;;;11.60;99.90;;;;;;5027671;28;20087;-76
2022/02/25 10:15:56;;;;;;;0.00;0.00;;;11.50;99.90;;;;;;5028169;28;20508;-77
2022/02/25 10:18:26;;;;;;;1.92;1.02;;;11.60;99.90;;;;;;5009778;28;20028;-77
2022/02/25 10:21:01;;;;;;;0.00;0.00;;;11.90;99.90;;;;;;5016926;28;20056;-75
2022/02/25 10:23:30;;;;;;;0.00;0.00;;;11.90;99.90;;;;;;5029448;28;20025;-74
2022/02/25 10:26:15;;;;;;;3.10;0.98;;;12.10;99.90;;;;;;5017887;28;20036;-76
2022/02/25 10:28:53;;;;;;;0.00;0.00;;;12.20;99.90;;;;;;5010194;28;20102;-76
2022/02/25 10:31:21;;;;;;;0.00;0.00;;;12.40;99.90;;;;;;5025548;28;20033;-74
2022/02/25 10:34:11;;;;;;;0.10;0.10;;;12.10;99.90;;;;;;5011412;28;20164;-74
2022/02/25 10:36:55;;;;;;;0.00;0.00;;;12.10;99.90;;;;;;5030682;28;20416;-74
2022/02/25 10:39:29;;;;;;;1.13;0.65;;;12.20;99.90;;;;;;5029304;28;20018;-76
2022/02/25 10:42:16;;;;;;;0.00;0.00;;;12.40;99.90;;;;;;5029724;28;20082;-76
2022/02/25 10:45:02;;;;;;;8.98;0.35;;;12.20;99.90;;;;;;5016616;28;20094;-76
2022/02/25 10:47:32;;;;;;;5.32;0.77;;;12.10;99.90;;;;;;5045556;28;20396;-74
2022/02/25 10:50:01;;;;;;;2.00;1.25;;;12.00;99.90;;;;;;5033420;28;20456;-73
2022/02/25 10:52:29;;;;;;;0.60;0.60;;;11.40;99.90;;;;;;5032990;28;20026;-72
2022/02/25 10:54:56;;;;;;;0.13;0.13;;;11.10;99.90;;;;;;5032291;28;20489;-76
2022/02/25 10:57:22;;;;;;;0.00;0.00;;;11.10;99.90;;;;;;5033731;28;20025;-73
2022/02/25 10:59:48;;;;;;;0.00;0.00;;;11.40;99.90;;;;;;5032062;28;20083;-73
2022/02/25 11:02:29;;;;;;;0.45;0.45;;;11.50;99.90;;;;;;5033747;28;20029;-76
2022/02/25 11:05:27;;;;;;;0.00;0.00;;;11.70;99.90;;;;;;5034039;28;20559;-76
2022/02/25 11:07:56;;;;;;;0.00;0.00;;;11.80;99.90;;;;;;5029242;28;20042;-76
2022/02/25 11:10:23;;;;;;;1.88;1.08;;;11.70;99.90;;;;;;5027669;28;20079;-75
2022/02/25 11:12:50;;;;;;;0.03;0.03;;;11.40;99.90;;;;;;5032327;28;20436;-76
2022/02/25 11:15:27;;;;;;;26.88;0.85;;;11.30;99.90;;;;;;5028197;28;20025;-76
2022/02/25 11:17:54;;;;;;;1.77;0.85;;;11.80;99.90;;;;;;5016906;28;20080;-73
2022/02/25 11:20:23;;;;;;;0.00;0.00;;;11.80;99.90;;;;;;5020772;28;20075;-72
2022/02/25 11:22:56;;;;;;;1.98;0.70;;;11.60;99.90;;;;;;5022206;28;20895;-77
2022/02/25 11:25:22;;;;;;;0.00;0.00;;;11.70;99.90;;;;;;5020441;28;20030;-76
2022/02/25 11:27:48;;;;;;;1.80;0.30;;;11.50;99.90;;;;;;5017698;28;20041;-76
2022/02/25 11:30:21;;;;;;;0.85;0.55;;;11.60;99.90;;;;;;5015583;28;20041;-74
2022/02/25 11:32:59;;;;;;;0.00;0.00;;;11.50;99.90;;;;;;5016172;28;20108;-76
2022/02/25 11:35:28;;;;;;;0.43;0.43;;;11.80;99.90;;;;;;5025864;28;20045;-76
2022/02/25 11:38:09;;;;;;;0.00;0.00;;;12.20;99.90;;;;;;5015466;28;20030;-77
2022/02/25 11:40:59;;;;;;;0.00;0.00;;;12.50;99.90;;;;;;5011408;28;20021;-77
2022/02/25 11:43:48;;;;;;;0.10;0.10;;;12.70;99.90;;;;;;5023719;28;20036;-77
2022/02/25 11:46:28;;;;;;;0.20;0.20;;;12.60;99.90;;;;;;5015414;28;20033;-74
2022/02/25 11:48:56;;;;;;;0.17;0.17;;;12.80;99.90;;;;;;5014122;28;20033;-77
2022/02/25 11:51:36;;;;;;;0.03;0.03;;;13.00;99.90;;;;;;5007286;28;20029;-76
2022/02/25 11:54:26;;;;;;;6.82;0.60;;;13.20;99.90;;;;;;5003517;28;20670;-74
2022/02/25 11:57:04;;;;;;;0.00;0.00;;;13.10;99.90;;;;;;5029856;28;20021;-72
2022/02/25 11:59:32;;;;;;;0.10;0.10;;;12.60;99.90;;;;;;5007281;28;20040;-75
2022/02/25 12:02:35;;;;;;;1.08;0.75;;;12.40;99.90;;;;;;5019825;28;20030;-75
2022/02/25 12:05:06;;;;;;;1.48;0.88;;;12.30;99.90;;;;;;5022436;28;20539;-75
2022/02/25 12:07:38;;;;;;;0.32;0.17;;;12.50;99.90;;;;;;5030598;28;20021;-72
2022/02/25 12:10:12;;;;;;;0.20;0.20;;;12.20;99.90;;;;;;5030394;28;20041;-73
2022/02/25 12:12:39;;;;;;;0.00;0.00;;;11.70;99.90;;;;;;5030619;28;20026;-75
2022/02/25 12:15:12;;;;;;;0.00;0.00;;;11.70;99.90;;;;;;5030280;28;20026;-72
2022/02/25 12:17:45;;;;;;;0.00;0.00;;;11.40;99.90;;;;;;5030802;28;20018;-75
2022/02/25 12:20:24;;;;;;;0.00;0.00;;;11.30;99.90;;;;;;5031744;28;20388;-73
2022/02/25 12:23:07;;;;;;;0.20;0.20;;;11.10;99.90;;;;;;5029889;28;20132;-75
2022/02/25 12:25:43;;;;;;;0.00;0.00;;;11.20;99.90;;;;;;5026366;28;20033;-75
2022/02/25 12:28:14;;;;;;;0.63;0.63;;;11.80;99.90;;;;;;5029524;28;20088;-73
2022/02/25 12:30:46;;;;;;;8.88;2.28;;;12.20;99.90;;;;;;5030086;28;20396;-77
2022/02/25 12:33:29;;;;;;;11.38;0.20;;;12.50;99.90;;;;;;5030906;28;20136;-76
2022/02/25 12:35:56;;;;;;;0.60;0.60;;;13.00;99.90;;;;;;5038124;28;20491;-77
2022/02/25 12:38:27;;;;;;;1.58;1.30;;;13.40;99.90;;;;;;5040137;28;20036;-77
2022/02/25 12:41:07;;;;;;;0.45;0.45;;;13.90;99.90;;;;;;5032527;28;20025;-76
2022/02/25 12:43:33;;;;;;;0.52;0.52;;;14.00;99.90;;;;;;5039863;28;20040;-76
2022/02/25 12:45:59;;;;;;;2.50;0.60;;;13.90;99.90;;;;;;5039443;28;20519;-76
2022/02/25 12:48:26;;;;;;;0.95;0.88;;;13.60;99.90;;;;;;5045833;28;20037;-76
2022/02/25 12:50:51;;;;;;;0.88;0.85;;;13.30;99.90;;;;;;5032525;28;20412;-76
2022/02/25 12:53:17;;;;;;;0.40;0.08;;;12.80;99.90;;;;;;5037027;28;20025;-77
2022/02/25 12:55:54;;;;;;;0.65;0.57;;;12.90;99.90;;;;;;5033422;28;20454;-76
2022/02/25 12:58:30;;;;;;;0.00;0.00;;;12.70;99.90;;;;;;5031556;28;20045;-75
2022/02/25 13:00:56;;;;;;;0.00;0.00;;;12.50;99.90;;;;;;5047314;28;20025;-77
2022/02/25 13:03:22;;;;;;;0.00;0.00;;;12.60;99.90;;;;;;5041868;28;20413;-75